createdAt,value
2022-10-11T00:01:08.063Z,10.96
2022-10-11T00:03:37.881Z,10.96
2022-10-11T00:06:09.307Z,10.97
2022-10-11T00:08:38.085Z,10.96
2022-10-11T00:11:08.536Z,10.96
2022-10-11T00:13:37.167Z,10.97
2022-10-11T00:16:09.366Z,10.97
2022-10-11T00:18:37.977Z,10.96
2022-10-11T00:21:10.360Z,10.97
2022-10-11T00:23:39.187Z,10.96
2022-10-11T00:26:10.097Z,10.94
2022-10-11T00:28:39.675Z,10.91
2022-10-11T00:31:09.420Z,10.90
2022-10-11T00:33:37.919Z,10.89
2022-10-11T00:36:09.486Z,10.82
2022-10-11T00:38:38.013Z,10.77
2022-10-11T00:41:06.675Z,10.74
2022-10-11T00:43:35.426Z,10.75
2022-10-11T00:46:24.634Z,10.74
2022-10-11T00:48:59.077Z,10.70
2022-10-11T00:51:46.071Z,10.66
2022-10-11T00:54:19.088Z,10.62
2022-10-11T00:56:51.573Z,10.57
2022-10-11T00:59:21.540Z,10.47
2022-10-11T01:01:50.133Z,10.48
2022-10-11T01:04:18.739Z,10.49
2022-10-11T01:06:50.955Z,10.51
2022-10-11T01:09:20.716Z,10.53
2022-10-11T01:11:50.935Z,10.53
2022-10-11T01:14:40.362Z,10.47
2022-10-11T01:17:20.362Z,10.39
2022-10-11T01:20:06.438Z,10.33
2022-10-11T01:23:01.158Z,10.37
2022-10-11T01:25:38.163Z,10.46
2022-10-11T01:28:24.125Z,10.52
2022-10-11T01:30:59.150Z,10.54
2022-10-11T01:33:37.726Z,10.55
2022-10-11T01:36:18.371Z,10.55
2022-10-11T01:38:51.438Z,10.54
2022-10-11T01:41:25.703Z,10.55
2022-10-11T01:43:59.340Z,10.57
2022-10-11T01:46:31.730Z,10.55
2022-10-11T01:49:02.480Z,10.49
2022-10-11T01:51:34.437Z,10.40
2022-10-11T01:54:15.963Z,10.34
2022-10-11T01:57:02.292Z,10.29
2022-10-11T01:59:42.526Z,10.30
2022-10-11T02:02:28.788Z,10.33
2022-10-11T02:05:04.835Z,10.38
2022-10-11T02:07:41.934Z,10.40
2022-10-11T02:10:17.673Z,10.39
2022-10-11T02:12:51.854Z,10.41
2022-10-11T02:15:22.476Z,10.45
2022-10-11T02:18:00.874Z,10.48
2022-10-11T02:20:33.647Z,10.50
2022-10-11T02:23:07.244Z,10.52
2022-10-11T02:25:37.675Z,10.54
2022-10-11T02:28:10.454Z,10.51
2022-10-11T02:30:40.032Z,10.49
2022-10-11T02:33:15.954Z,10.51
2022-10-11T02:35:51.192Z,10.48
2022-10-11T02:38:25.001Z,10.36
2022-10-11T02:40:59.061Z,10.23
2022-10-11T02:43:39.898Z,10.12
2022-10-11T02:46:09.640Z,10.11
2022-10-11T02:48:39.960Z,10.16
2022-10-11T02:51:14.532Z,10.21
2022-10-11T02:53:43.671Z,10.24
2022-10-11T02:56:12.146Z,10.26
2022-10-11T02:58:40.419Z,10.25
2022-10-11T03:01:08.795Z,10.20
2022-10-11T03:03:37.177Z,10.17
2022-10-11T03:06:07.752Z,10.18
2022-10-11T03:08:36.250Z,10.18
2022-10-11T03:11:05.049Z,10.17
2022-10-11T03:13:33.593Z,10.19
2022-10-11T03:16:07.288Z,10.21
2022-10-11T03:18:36.256Z,10.26
2022-10-11T03:21:04.985Z,10.30
2022-10-11T03:23:34.774Z,10.32
2022-10-11T03:26:03.504Z,10.32
2022-10-11T03:28:32.460Z,10.32
2022-10-11T03:31:01.046Z,10.33
2022-10-11T03:33:29.561Z,10.34
2022-10-11T03:35:59.500Z,10.35
2022-10-11T03:38:28.408Z,10.34
2022-10-11T03:40:58.093Z,10.30
2022-10-11T03:43:26.710Z,10.27
2022-10-11T03:45:55.578Z,10.24
2022-10-11T03:48:23.843Z,10.23
2022-10-11T03:50:52.103Z,10.21
2022-10-11T03:53:20.756Z,10.21
2022-10-11T03:55:53.623Z,10.21
2022-10-11T03:58:25.401Z,10.21
2022-10-11T04:00:54.957Z,10.18
2022-10-11T04:03:23.533Z,10.16
2022-10-11T04:05:52.023Z,10.14
2022-10-11T04:08:20.909Z,10.12
2022-10-11T04:10:49.854Z,10.11
2022-10-11T04:13:18.337Z,10.07
2022-10-11T04:15:48.653Z,10.05
2022-10-11T04:18:17.675Z,10.02
2022-10-11T04:20:47.550Z,10.00
2022-10-11T04:23:16.148Z,9.94
2022-10-11T04:25:45.587Z,9.83
2022-10-11T04:28:14.070Z,9.68
2022-10-11T04:30:42.342Z,9.55
2022-10-11T04:33:12.348Z,9.47
2022-10-11T04:35:40.919Z,9.43
2022-10-11T04:38:09.471Z,9.42
2022-10-11T04:40:38.265Z,9.43
2022-10-11T04:43:06.551Z,9.45
2022-10-11T04:45:34.791Z,9.47
2022-10-11T04:48:03.316Z,9.52
2022-10-11T04:50:32.987Z,9.58
2022-10-11T04:53:01.423Z,9.63
2022-10-11T04:55:30.579Z,9.72
2022-10-11T04:57:59.097Z,9.77
2022-10-11T05:00:28.408Z,9.83
2022-10-11T05:02:58.137Z,9.89
2022-10-11T05:05:26.682Z,9.95
2022-10-11T05:07:56.663Z,9.98
2022-10-11T05:10:24.903Z,9.99
2022-10-11T05:12:53.104Z,9.98
2022-10-11T05:15:21.976Z,9.97
2022-10-11T05:17:50.487Z,9.94
2022-10-11T05:20:18.884Z,9.92
2022-10-11T05:22:47.126Z,9.90
2022-10-11T05:25:17.273Z,9.90
2022-10-11T05:27:45.860Z,9.91
2022-10-11T05:30:18.249Z,9.94
2022-10-11T05:32:46.410Z,9.88
2022-10-11T05:35:14.686Z,9.92
2022-10-11T05:37:43.479Z,9.96
2022-10-11T05:40:12.990Z,9.99
2022-10-11T05:42:43.371Z,10.00
2022-10-11T05:45:12.370Z,10.01
2022-10-11T05:47:40.591Z,10.03
2022-10-11T05:50:09.452Z,10.05
2022-10-11T05:52:37.958Z,10.03
2022-10-11T05:55:07.506Z,10.01
2022-10-11T05:57:35.759Z,9.97
2022-10-11T06:00:06.122Z,9.98
2022-10-11T06:02:40.837Z,9.99
2022-10-11T06:05:10.022Z,10.00
2022-10-11T06:07:39.434Z,9.97
2022-10-11T06:10:09.622Z,9.97
2022-10-11T06:12:38.844Z,9.96
2022-10-11T06:15:10.954Z,9.98
2022-10-11T06:17:39.511Z,9.99
2022-10-11T06:20:08.994Z,10.00
2022-10-11T06:22:37.918Z,10.03
2022-10-11T06:25:06.928Z,10.04
2022-10-11T06:27:35.759Z,10.06
2022-10-11T06:30:04.364Z,10.07
2022-10-11T06:32:34.012Z,10.08
2022-10-11T06:35:03.484Z,10.13
2022-10-11T06:37:32.273Z,10.17
2022-10-11T06:40:00.525Z,10.22
2022-10-11T06:42:28.725Z,10.29
2022-10-11T06:44:57.238Z,10.35
2022-10-11T06:47:25.494Z,10.42
2022-10-11T06:49:55.209Z,10.50
2022-10-11T06:52:23.524Z,10.59
2022-10-11T06:54:51.710Z,10.71
2022-10-11T06:57:20.260Z,10.82
2022-10-11T06:59:48.449Z,10.92
2022-10-11T07:02:16.646Z,11.04
2022-10-11T07:04:44.885Z,11.18
2022-10-11T07:07:16.119Z,11.46
2022-10-11T07:09:44.390Z,12.01
2022-10-11T07:12:12.587Z,12.32
2022-10-11T07:14:41.995Z,12.83
2022-10-11T07:17:10.477Z,13.36
2022-10-11T07:19:38.947Z,13.73
2022-10-11T07:22:07.697Z,14.64
2022-10-11T07:24:37.683Z,15.53
2022-10-11T07:27:06.189Z,15.65
2022-10-11T07:29:34.709Z,15.33
2022-10-11T07:32:03.297Z,14.97
2022-10-11T07:34:31.482Z,14.68
2022-10-11T07:36:59.706Z,14.27
2022-10-11T07:39:27.949Z,14.11
2022-10-11T07:41:57.572Z,14.09
2022-10-11T07:44:26.159Z,14.08
2022-10-11T07:46:54.453Z,14.12
2022-10-11T07:49:22.666Z,13.91
2022-10-11T07:51:50.936Z,13.72
2022-10-11T07:54:20.123Z,13.62
2022-10-11T07:56:49.254Z,13.54
2022-10-11T07:59:18.844Z,13.53
2022-10-11T08:01:47.583Z,13.64
2022-10-11T08:04:16.314Z,14.00
2022-10-11T08:06:44.593Z,14.10
2022-10-11T08:09:13.294Z,14.11
2022-10-11T08:11:41.567Z,14.26
2022-10-11T08:14:11.509Z,14.51
2022-10-11T08:16:41.884Z,14.63
2022-10-11T08:19:11.748Z,14.77
2022-10-11T08:21:40.038Z,14.65
2022-10-11T08:24:09.482Z,14.69
2022-10-11T08:26:37.705Z,14.80
2022-10-11T08:29:06.216Z,15.18
2022-10-11T08:31:36.159Z,15.84
2022-10-11T08:34:05.879Z,16.14
2022-10-11T08:36:34.147Z,16.00
2022-10-11T08:39:02.959Z,15.60
2022-10-11T08:41:39.826Z,15.51
2022-10-11T08:44:51.801Z,15.92
2022-10-11T08:47:24.861Z,16.95
2022-10-11T08:49:54.367Z,17.23
2022-10-11T08:52:25.751Z,17.78
2022-10-11T08:54:59.533Z,18.33
2022-10-11T08:57:31.221Z,19.62
2022-10-11T09:00:02.035Z,20.50
2022-10-11T09:03:06.533Z,21.09
2022-10-11T09:05:35.258Z,21.32
2022-10-11T09:08:09.516Z,21.25
2022-10-11T09:10:51.404Z,20.58
2022-10-11T09:13:35.869Z,20.20
2022-10-11T09:16:13.974Z,20.52
2022-10-11T09:18:56.795Z,20.93
2022-10-11T09:21:37.329Z,21.40
2022-10-11T09:24:30.772Z,21.70
2022-10-11T09:27:02.616Z,21.69
2022-10-11T09:29:49.774Z,21.88
2022-10-11T09:32:21.084Z,21.58
2022-10-11T09:34:54.650Z,21.67
2022-10-11T09:37:32.768Z,21.34
2022-10-11T09:40:08.725Z,21.39
2022-10-11T09:42:36.986Z,21.98
2022-10-11T09:45:17.998Z,21.84
2022-10-11T09:47:46.423Z,21.56
2022-10-11T09:50:18.972Z,21.47
2022-10-11T09:52:52.392Z,21.67
2022-10-11T09:55:40.687Z,21.74
2022-10-11T09:58:28.369Z,22.02
2022-10-11T10:01:07.928Z,21.85
2022-10-11T10:03:38.193Z,21.67
2022-10-11T10:06:09.993Z,21.96
2022-10-11T10:08:39.788Z,22.17
2022-10-11T10:11:09.924Z,21.85
2022-10-11T10:13:44.538Z,21.50
2022-10-11T10:16:28.374Z,21.05
2022-10-11T10:18:59.430Z,20.39
2022-10-11T10:21:32.073Z,19.89
2022-10-11T10:24:06.786Z,19.79
2022-10-11T10:26:36.078Z,19.65
2022-10-11T10:29:18.673Z,20.03
2022-10-11T10:32:13.946Z,19.89
2022-10-11T10:34:55.028Z,19.38
2022-10-11T10:37:28.588Z,19.09
2022-10-11T10:40:03.733Z,19.01
2022-10-11T10:42:32.014Z,18.78
2022-10-11T10:45:01.478Z,18.64
2022-10-11T10:47:54.288Z,18.54
2022-10-11T10:50:28.006Z,18.47
2022-10-11T10:53:14.256Z,18.32
2022-10-11T10:55:46.865Z,18.43
2022-10-11T10:58:47.028Z,18.56
2022-10-11T11:01:21.912Z,18.62
2022-10-11T11:03:57.330Z,18.49
2022-10-11T11:06:35.761Z,18.54
2022-10-11T11:09:15.489Z,18.38
2022-10-11T11:11:57.925Z,18.17
2022-10-11T11:14:33.232Z,18.20
2022-10-11T11:17:09.606Z,18.58
2022-10-11T11:19:49.770Z,18.73
2022-10-11T11:22:32.707Z,18.88
2022-10-11T11:25:11.091Z,19.00
2022-10-11T11:27:52.710Z,18.80
2022-10-11T11:30:24.269Z,18.87
2022-10-11T11:33:04.722Z,19.03
2022-10-11T11:35:39.173Z,19.03
2022-10-11T11:38:16.161Z,19.03
2022-10-11T11:40:47.707Z,19.07
2022-10-11T11:43:24.826Z,19.13
2022-10-11T11:45:56.787Z,19.15
2022-10-11T11:48:27.371Z,19.12
2022-10-11T11:51:03.599Z,18.88
2022-10-11T11:53:48.824Z,18.95
2022-10-11T11:56:27.846Z,19.19
2022-10-11T11:59:04.334Z,19.22
2022-10-11T12:01:42.603Z,19.28
2022-10-11T12:04:29.770Z,19.40
2022-10-11T12:07:21.888Z,19.38
2022-10-11T12:09:54.482Z,19.46
2022-10-11T12:12:31.798Z,19.37
2022-10-11T12:15:21.333Z,19.36
2022-10-11T12:18:15.470Z,19.31
2022-10-11T12:20:45.216Z,19.24
2022-10-11T12:23:48.269Z,19.29
2022-10-11T12:26:42.017Z,19.44
2022-10-11T12:29:43.715Z,19.49
2022-10-11T12:32:48.490Z,19.42
2022-10-11T12:35:52.013Z,19.48
2022-10-11T12:38:23.351Z,19.41
2022-10-11T12:40:54.365Z,19.49
2022-10-11T12:43:30.078Z,19.70
2022-10-11T12:45:58.534Z,19.83
2022-10-11T12:48:50.270Z,19.57
2022-10-11T12:51:37.475Z,19.44
2022-10-11T12:54:47.734Z,19.55
2022-10-11T12:57:46.110Z,19.57
2022-10-11T13:00:21.923Z,19.67
2022-10-11T13:02:51.310Z,19.78
2022-10-11T13:05:24.905Z,19.93
2022-10-11T13:07:54.352Z,19.93
2022-10-11T13:10:28.807Z,20.03
2022-10-11T13:12:59.745Z,20.11
2022-10-11T13:15:28.395Z,20.17
2022-10-11T13:18:00.388Z,20.07
2022-10-11T13:20:37.661Z,19.99
2022-10-11T13:23:22.999Z,19.95
2022-10-11T13:25:51.826Z,19.95
2022-10-11T13:28:21.509Z,19.93
2022-10-11T13:30:53.856Z,19.97
2022-10-11T13:33:23.923Z,19.92
2022-10-11T13:35:54.437Z,20.09
2022-10-11T13:38:27.141Z,20.06
2022-10-11T13:40:56.981Z,20.16
2022-10-11T13:43:28.367Z,20.22
2022-10-11T13:45:58.444Z,20.13
2022-10-11T13:48:31.663Z,20.17
2022-10-11T13:51:09.607Z,20.09
2022-10-11T13:53:38.149Z,19.99
2022-10-11T13:56:09.506Z,20.12
2022-10-11T13:58:41.230Z,20.36
2022-10-11T14:01:20.830Z,20.53
2022-10-11T14:03:54.566Z,20.49
2022-10-11T14:06:25.211Z,20.26
2022-10-11T14:08:56.868Z,20.20
2022-10-11T14:11:36.826Z,20.13
2022-10-11T14:14:40.260Z,20.24
2022-10-11T14:17:16.839Z,20.44
2022-10-11T14:19:46.558Z,20.57
2022-10-11T14:22:18.386Z,20.71
2022-10-11T14:24:49.980Z,20.72
2022-10-11T14:27:22.387Z,20.68
2022-10-11T14:30:13.010Z,20.56
2022-10-11T14:32:42.175Z,20.53
2022-10-11T14:35:17.895Z,20.67
2022-10-11T14:37:48.527Z,20.82
2022-10-11T14:40:19.098Z,20.87
2022-10-11T14:42:47.802Z,20.91
2022-10-11T14:45:16.566Z,20.92
2022-10-11T14:47:45.260Z,20.90
2022-10-11T14:50:41.617Z,20.86
2022-10-11T14:53:12.645Z,20.83
2022-10-11T14:55:42.148Z,20.74
2022-10-11T14:58:12.839Z,20.69
2022-10-11T15:00:41.555Z,20.61
2022-10-11T15:03:09.898Z,20.41
2022-10-11T15:05:38.552Z,20.41
2022-10-11T15:08:08.367Z,20.37
2022-10-11T15:10:40.917Z,20.44
2022-10-11T15:13:10.277Z,20.54
2022-10-11T15:15:41.427Z,20.62
2022-10-11T15:18:16.684Z,20.71
2022-10-11T15:20:46.982Z,20.75
2022-10-11T15:23:15.435Z,20.78
2022-10-11T15:25:45.587Z,20.77
2022-10-11T15:28:24.842Z,20.75
2022-10-11T15:30:53.142Z,20.76
2022-10-11T15:33:21.421Z,20.82
2022-10-11T15:35:50.147Z,20.83
2022-10-11T15:38:20.873Z,20.73
2022-10-11T15:40:51.535Z,20.65
2022-10-11T15:43:24.537Z,20.59
2022-10-11T15:45:53.727Z,20.59
2022-10-11T15:48:25.605Z,20.54
2022-10-11T15:50:55.092Z,20.38
2022-10-11T15:53:25.841Z,20.25
2022-10-11T15:55:57.783Z,20.18
2022-10-11T15:58:28.557Z,20.04
2022-10-11T16:01:00.440Z,19.89
2022-10-11T16:03:30.836Z,19.83
2022-10-11T16:06:04.921Z,19.81
2022-10-11T16:08:34.900Z,19.76
2022-10-11T16:11:05.735Z,19.73
2022-10-11T16:13:34.684Z,19.65
2022-10-11T16:16:04.651Z,19.64
2022-10-11T16:18:35.750Z,19.60
2022-10-11T16:21:07.855Z,19.54
2022-10-11T16:23:37.065Z,19.45
2022-10-11T16:26:10.385Z,19.31
2022-10-11T16:28:39.400Z,19.17
2022-10-11T16:31:08.534Z,19.07
2022-10-11T16:33:45.478Z,19.00
2022-10-11T16:36:31.136Z,18.89
2022-10-11T16:38:59.942Z,18.76
2022-10-11T16:41:29.580Z,18.66
2022-10-11T16:43:58.104Z,18.57
2022-10-11T16:46:26.765Z,18.47
2022-10-11T16:48:56.746Z,18.36
2022-10-11T16:51:25.392Z,18.24
2022-10-11T16:53:54.427Z,18.10
2022-10-11T16:56:25.165Z,18.00
2022-10-11T16:58:56.020Z,17.91
2022-10-11T17:01:24.869Z,17.81
2022-10-11T17:03:53.974Z,17.70
2022-10-11T17:06:22.293Z,17.59
2022-10-11T17:08:50.879Z,17.48
2022-10-11T17:11:21.716Z,17.36
2022-10-11T17:13:50.712Z,17.26
2022-10-11T17:16:21.224Z,17.17
2022-10-11T17:18:51.955Z,17.11
2022-10-11T17:21:22.204Z,17.02
2022-10-11T17:23:50.883Z,16.96
2022-10-11T17:26:21.566Z,16.89
2022-10-11T17:28:50.351Z,16.78
2022-10-11T17:31:20.048Z,16.69
2022-10-11T17:33:48.869Z,16.62
2022-10-11T17:36:21.918Z,16.54
2022-10-11T17:38:51.893Z,16.42
2022-10-11T17:41:21.064Z,16.29
2022-10-11T17:43:49.439Z,16.17
2022-10-11T17:46:22.398Z,16.08
2022-10-11T17:48:54.993Z,15.97
2022-10-11T17:51:23.321Z,15.87
2022-10-11T17:53:52.006Z,15.80
2022-10-11T17:56:26.890Z,15.77
2022-10-11T17:58:59.265Z,15.73
2022-10-11T18:01:30.749Z,15.69
2022-10-11T18:04:00.762Z,15.61
2022-10-11T18:06:31.270Z,15.57
2022-10-11T18:09:02.926Z,15.49
2022-10-11T18:11:31.499Z,15.39
2022-10-11T18:13:59.832Z,15.31
2022-10-11T18:16:32.199Z,15.23
2022-10-11T18:19:00.768Z,15.18
2022-10-11T18:21:34.385Z,15.14
2022-10-11T18:24:05.807Z,15.09
2022-10-11T18:26:35.469Z,15.04
2022-10-11T18:29:03.901Z,14.96
2022-10-11T18:31:35.348Z,14.91
2022-10-11T18:34:04.984Z,14.84
2022-10-11T18:36:33.900Z,14.82
2022-10-11T18:39:05.732Z,14.79
2022-10-11T18:41:35.474Z,14.77
2022-10-11T18:44:07.269Z,14.76
2022-10-11T18:46:37.659Z,14.76
2022-10-11T18:49:06.487Z,14.74
2022-10-11T18:51:37.596Z,14.70
2022-10-11T18:54:07.549Z,14.68
2022-10-11T18:56:37.249Z,14.68
2022-10-11T18:59:06.996Z,14.68
2022-10-11T19:01:39.334Z,14.68
2022-10-11T19:04:10.069Z,14.67
2022-10-11T19:06:40.545Z,14.66
2022-10-11T19:09:11.697Z,14.60
2022-10-11T19:11:41.014Z,14.56
2022-10-11T19:14:11.590Z,14.51
2022-10-11T19:16:43.278Z,14.45
2022-10-11T19:19:14.428Z,14.40
2022-10-11T19:21:43.222Z,14.38
2022-10-11T19:24:11.767Z,14.35
2022-10-11T19:26:41.895Z,14.31
2022-10-11T19:29:14.720Z,14.28
2022-10-11T19:31:46.202Z,14.26
2022-10-11T19:34:14.910Z,14.22
2022-10-11T19:36:44.666Z,14.21
2022-10-11T19:39:14.180Z,14.20
2022-10-11T19:41:43.092Z,14.19
2022-10-11T19:44:11.839Z,14.18
2022-10-11T19:46:55.944Z,14.12
2022-10-11T19:49:28.116Z,14.13
2022-10-11T19:51:56.362Z,14.12
2022-10-11T19:54:25.726Z,14.11
2022-10-11T19:56:54.211Z,14.11
2022-10-11T19:59:22.489Z,14.17
2022-10-11T20:01:52.955Z,14.19
2022-10-11T20:07:11.554Z,14.18
2022-10-11T20:09:39.801Z,14.17
2022-10-11T20:12:08.531Z,14.09
2022-10-11T20:14:37.205Z,14.04
2022-10-11T20:17:05.723Z,14.05
2022-10-11T20:19:34.263Z,13.98
2022-10-11T20:22:02.948Z,13.88
2022-10-11T20:24:34.690Z,13.77
2022-10-11T20:27:05.960Z,13.68
2022-10-11T20:29:35.312Z,13.57
2022-10-11T20:32:03.508Z,13.50
2022-10-11T20:34:31.880Z,13.52
2022-10-11T20:37:00.114Z,13.57
2022-10-11T20:39:28.343Z,13.57
2022-10-11T20:41:58.193Z,13.56
2022-10-11T20:44:26.668Z,13.57
2022-10-11T20:46:54.892Z,13.60
2022-10-11T20:49:23.427Z,13.64
2022-10-11T20:51:51.651Z,13.68
2022-10-11T20:54:20.340Z,13.72
2022-10-11T20:56:48.810Z,13.72
2022-10-11T20:59:18.997Z,13.73
2022-10-11T21:01:47.282Z,13.69
2022-10-11T21:04:19.869Z,13.70
2022-10-11T21:06:48.662Z,13.73
2022-10-11T21:09:17.247Z,13.77
2022-10-11T21:11:45.986Z,13.82
2022-10-11T21:14:14.455Z,13.81
2022-10-11T21:16:44.532Z,13.81
2022-10-11T21:19:16.227Z,13.84
2022-10-11T21:21:50.971Z,13.83
2022-10-11T21:24:22.641Z,13.77
2022-10-11T21:26:50.847Z,13.77
2022-10-11T21:29:19.335Z,13.80
2022-10-11T21:31:49.813Z,13.85
2022-10-11T21:34:18.935Z,13.83
2022-10-11T21:36:47.193Z,13.77
2022-10-11T21:39:15.389Z,13.75
2022-10-11T21:41:43.627Z,13.76
2022-10-11T21:44:11.851Z,13.75
2022-10-11T21:47:09.042Z,13.76
2022-10-11T21:49:30.684Z,13.76
2022-10-11T21:51:58.892Z,13.72
2022-10-11T21:54:27.063Z,13.71
2022-10-11T21:56:55.352Z,13.75
2022-10-11T21:59:23.899Z,13.79
2022-10-11T22:01:52.284Z,13.80
2022-10-11T22:04:21.498Z,13.83
2022-10-11T22:06:51.497Z,13.91
2022-10-11T22:09:19.718Z,13.99
2022-10-11T22:11:49.149Z,13.99
2022-10-11T22:14:17.737Z,13.94
2022-10-11T22:16:46.173Z,13.93
2022-10-11T22:19:14.578Z,13.90
2022-10-11T22:21:45.174Z,13.90
2022-10-11T22:24:15.146Z,13.88
2022-10-11T22:26:43.439Z,13.89
2022-10-11T22:29:11.702Z,13.91
2022-10-11T22:31:41.856Z,13.88
2022-10-11T22:34:10.630Z,13.91
2022-10-11T22:36:39.419Z,13.95
2022-10-11T22:39:16.857Z,13.93
2022-10-11T22:41:56.122Z,13.89
2022-10-11T22:44:24.797Z,13.92
2022-10-11T22:46:52.977Z,13.96
2022-10-11T22:49:21.216Z,13.93
2022-10-11T22:51:49.566Z,13.87
2022-10-11T22:54:17.794Z,13.78
2022-10-11T22:56:46.297Z,13.77
2022-10-11T22:59:15.937Z,13.77
2022-10-11T23:01:44.168Z,13.77
2022-10-11T23:04:12.365Z,13.68
2022-10-11T23:06:40.605Z,13.68
2022-10-11T23:09:08.939Z,13.70
2022-10-11T23:11:37.465Z,13.75
2022-10-11T23:14:05.802Z,13.78
2022-10-11T23:16:35.445Z,13.77
2022-10-11T23:19:04.774Z,13.77
2022-10-11T23:21:33.241Z,13.78
2022-10-11T23:24:02.464Z,13.77
2022-10-11T23:26:30.671Z,13.77
2022-10-11T23:28:58.865Z,13.76
2022-10-11T23:31:27.256Z,13.70
2022-10-11T23:33:56.928Z,13.65
2022-10-11T23:36:27.266Z,13.61
2022-10-11T23:38:57.393Z,13.58
2022-10-11T23:41:26.998Z,13.59
2022-10-11T23:43:55.283Z,13.61
2022-10-11T23:46:23.753Z,13.63
2022-10-11T23:48:52.231Z,13.69
2022-10-11T23:51:22.158Z,13.76
2022-10-11T23:53:50.417Z,13.84
2022-10-11T23:56:18.771Z,13.91
2022-10-11T23:58:46.967Z,13.95
